sensor_id;sensor_type;location;lat;lon;timestamp;P1;durP1;ratioP1;P2;durP2;ratioP2
69059;SDS011;56135;37.534;-122.308;2023-02-15T00:01:35;2.05;;;0.28;;
69059;SDS011;56135;37.534;-122.308;2023-02-15T00:04:02;1.40;;;0.50;;
69059;SDS011;56135;37.534;-122.308;2023-02-15T00:06:30;3.03;;;1.95;;
69059;SDS011;56135;37.534;-122.308;2023-02-15T00:08:57;0.40;;;0.40;;
69059;SDS011;56135;37.534;-122.308;2023-02-15T00:14:11;3.55;;;0.60;;
69059;SDS011;56135;37.534;-122.308;2023-02-15T00:16:42;1.63;;;0.30;;
69059;SDS011;56135;37.534;-122.308;2023-02-15T00:19:10;4.88;;;0.22;;
69059;SDS011;56135;37.534;-122.308;2023-02-15T00:21:38;5.05;;;0.90;;
69059;SDS011;56135;37.534;-122.308;2023-02-15T00:24:06;1.55;;;0.20;;
69059;SDS011;56135;37.534;-122.308;2023-02-15T00:26:34;4.75;;;0.45;;
69059;SDS011;56135;37.534;-122.308;2023-02-15T00:29:00;2.78;;;1.40;;
69059;SDS011;56135;37.534;-122.308;2023-02-15T00:31:27;2.92;;;0.47;;
69059;SDS011;56135;37.534;-122.308;2023-02-15T00:34:00;2.03;;;1.17;;
69059;SDS011;56135;37.534;-122.308;2023-02-15T00:36:27;6.82;;;1.30;;
69059;SDS011;56135;37.534;-122.308;2023-02-15T00:38:53;3.83;;;0.82;;
69059;SDS011;56135;37.534;-122.308;2023-02-15T00:41:19;2.38;;;1.08;;
69059;SDS011;56135;37.534;-122.308;2023-02-15T00:43:46;5.40;;;1.17;;
69059;SDS011;56135;37.534;-122.308;2023-02-15T00:46:12;5.07;;;0.77;;
69059;SDS011;56135;37.534;-122.308;2023-02-15T00:48:38;5.47;;;3.40;;
69059;SDS011;56135;37.534;-122.308;2023-02-15T00:51:04;2.55;;;1.30;;
69059;SDS011;56135;37.534;-122.308;2023-02-15T00:53:31;2.95;;;1.00;;
69059;SDS011;56135;37.534;-122.308;2023-02-15T00:55:57;6.03;;;0.95;;
69059;SDS011;56135;37.534;-122.308;2023-02-15T00:58:24;1.65;;;0.80;;
69059;SDS011;56135;37.534;-122.308;2023-02-15T01:03:17;2.83;;;0.30;;
69059;SDS011;56135;37.534;-122.308;2023-02-15T01:05:46;3.30;;;0.38;;
69059;SDS011;56135;37.534;-122.308;2023-02-15T01:08:14;1.50;;;0.22;;
69059;SDS011;56135;37.534;-122.308;2023-02-15T01:13:06;6.85;;;0.28;;
69059;SDS011;56135;37.534;-122.308;2023-02-15T01:15:35;9.90;;;2.22;;
69059;SDS011;56135;37.534;-122.308;2023-02-15T01:18:02;1.60;;;1.08;;
69059;SDS011;56135;37.534;-122.308;2023-02-15T01:20:28;3.25;;;0.65;;
69059;SDS011;56135;37.534;-122.308;2023-02-15T01:22:56;0.13;;;0.10;;
69059;SDS011;56135;37.534;-122.308;2023-02-15T01:25:22;3.58;;;0.25;;
69059;SDS011;56135;37.534;-122.308;2023-02-15T01:27:50;5.57;;;0.90;;
69059;SDS011;56135;37.534;-122.308;2023-02-15T01:30:36;1.55;;;0.43;;
69059;SDS011;56135;37.534;-122.308;2023-02-15T01:33:03;1.27;;;0.68;;
69059;SDS011;56135;37.534;-122.308;2023-02-15T01:35:29;0.90;;;0.47;;
69059;SDS011;56135;37.534;-122.308;2023-02-15T01:37:55;1.13;;;0.35;;
69059;SDS011;56135;37.534;-122.308;2023-02-15T01:40:23;1.27;;;0.40;;
69059;SDS011;56135;37.534;-122.308;2023-02-15T01:42:50;1.95;;;0.32;;
69059;SDS011;56135;37.534;-122.308;2023-02-15T01:48:10;0.65;;;0.20;;
69059;SDS011;56135;37.534;-122.308;2023-02-15T01:51:05;3.65;;;0.40;;
69059;SDS011;56135;37.534;-122.308;2023-02-15T01:53:37;6.88;;;0.73;;
69059;SDS011;56135;37.534;-122.308;2023-02-15T01:56:13;2.03;;;0.43;;
69059;SDS011;56135;37.534;-122.308;2023-02-15T01:58:44;1.35;;;0.77;;
69059;SDS011;56135;37.534;-122.308;2023-02-15T02:01:12;0.25;;;0.20;;
69059;SDS011;56135;37.534;-122.308;2023-02-15T02:06:24;2.17;;;0.30;;
69059;SDS011;56135;37.534;-122.308;2023-02-15T02:08:52;1.85;;;0.45;;
69059;SDS011;56135;37.534;-122.308;2023-02-15T02:11:20;3.38;;;0.85;;
69059;SDS011;56135;37.534;-122.308;2023-02-15T02:13:46;4.63;;;0.47;;
69059;SDS011;56135;37.534;-122.308;2023-02-15T02:16:21;0.43;;;0.22;;
69059;SDS011;56135;37.534;-122.308;2023-02-15T02:36:08;1.00;;;0.75;;
69059;SDS011;56135;37.534;-122.308;2023-02-15T02:39:07;3.67;;;1.23;;
69059;SDS011;56135;37.534;-122.308;2023-02-15T02:41:56;6.80;;;1.27;;
69059;SDS011;56135;37.534;-122.308;2023-02-15T02:47:12;5.30;;;0.85;;
69059;SDS011;56135;37.534;-122.308;2023-02-15T02:49:59;2.03;;;1.20;;
69059;SDS011;56135;37.534;-122.308;2023-02-15T02:52:42;1.58;;;0.35;;
69059;SDS011;56135;37.534;-122.308;2023-02-15T02:55:15;1.60;;;0.52;;
69059;SDS011;56135;37.534;-122.308;2023-02-15T02:58:02;3.92;;;0.95;;
69059;SDS011;56135;37.534;-122.308;2023-02-15T03:03:38;3.47;;;0.52;;
69059;SDS011;56135;37.534;-122.308;2023-02-15T03:06:11;1.63;;;0.38;;
69059;SDS011;56135;37.534;-122.308;2023-02-15T03:08:46;6.72;;;1.17;;
69059;SDS011;56135;37.534;-122.308;2023-02-15T03:11:16;0.63;;;0.30;;
69059;SDS011;56135;37.534;-122.308;2023-02-15T03:13:43;10.55;;;2.13;;
69059;SDS011;56135;37.534;-122.308;2023-02-15T03:16:12;10.70;;;0.93;;
69059;SDS011;56135;37.534;-122.308;2023-02-15T03:19:00;1.42;;;0.38;;
69059;SDS011;56135;37.534;-122.308;2023-02-15T03:21:33;3.13;;;1.25;;
69059;SDS011;56135;37.534;-122.308;2023-02-15T03:24:05;3.45;;;0.65;;
69059;SDS011;56135;37.534;-122.308;2023-02-15T03:26:35;3.78;;;0.98;;
69059;SDS011;56135;37.534;-122.308;2023-02-15T03:29:03;3.83;;;1.30;;
69059;SDS011;56135;37.534;-122.308;2023-02-15T03:31:33;5.13;;;1.25;;
69059;SDS011;56135;37.534;-122.308;2023-02-15T03:34:04;6.60;;;1.17;;
69059;SDS011;56135;37.534;-122.308;2023-02-15T03:47:20;8.30;;;1.40;;
69059;SDS011;56135;37.534;-122.308;2023-02-15T03:49:53;1.92;;;0.80;;
69059;SDS011;56135;37.534;-122.308;2023-02-15T03:53:03;5.47;;;1.98;;
69059;SDS011;56135;37.534;-122.308;2023-02-15T03:55:33;6.00;;;2.88;;
69059;SDS011;56135;37.534;-122.308;2023-02-15T03:58:00;2.20;;;1.77;;
69059;SDS011;56135;37.534;-122.308;2023-02-15T04:00:48;5.38;;;2.10;;
69059;SDS011;56135;37.534;-122.308;2023-02-15T04:04:03;6.47;;;2.42;;
69059;SDS011;56135;37.534;-122.308;2023-02-15T04:06:31;5.15;;;1.75;;
69059;SDS011;56135;37.534;-122.308;2023-02-15T04:08:57;10.25;;;2.60;;
69059;SDS011;56135;37.534;-122.308;2023-02-15T04:11:42;12.30;;;2.38;;
69059;SDS011;56135;37.534;-122.308;2023-02-15T04:14:08;9.23;;;3.55;;
69059;SDS011;56135;37.534;-122.308;2023-02-15T04:16:52;4.55;;;1.48;;
69059;SDS011;56135;37.534;-122.308;2023-02-15T04:19:19;11.27;;;2.20;;
69059;SDS011;56135;37.534;-122.308;2023-02-15T04:22:03;11.70;;;1.98;;
69059;SDS011;56135;37.534;-122.308;2023-02-15T04:24:47;4.63;;;1.05;;
69059;SDS011;56135;37.534;-122.308;2023-02-15T04:27:32;2.83;;;1.02;;
69059;SDS011;56135;37.534;-122.308;2023-02-15T04:29:58;5.25;;;3.10;;
69059;SDS011;56135;37.534;-122.308;2023-02-15T04:32:24;3.45;;;0.93;;
69059;SDS011;56135;37.534;-122.308;2023-02-15T04:34:51;6.30;;;1.88;;
69059;SDS011;56135;37.534;-122.308;2023-02-15T04:37:17;1.20;;;0.95;;
69059;SDS011;56135;37.534;-122.308;2023-02-15T04:39:43;1.88;;;0.40;;
69059;SDS011;56135;37.534;-122.308;2023-02-15T04:42:09;0.93;;;0.63;;
69059;SDS011;56135;37.534;-122.308;2023-02-15T04:44:35;9.20;;;0.45;;
69059;SDS011;56135;37.534;-122.308;2023-02-15T04:47:01;2.15;;;1.25;;
69059;SDS011;56135;37.534;-122.308;2023-02-15T04:49:28;2.33;;;0.40;;
69059;SDS011;56135;37.534;-122.308;2023-02-15T04:51:54;0.38;;;0.20;;
69059;SDS011;56135;37.534;-122.308;2023-02-15T04:54:20;0.22;;;0.20;;
69059;SDS011;56135;37.534;-122.308;2023-02-15T04:56:46;3.45;;;0.98;;
69059;SDS011;56135;37.534;-122.308;2023-02-15T04:59:13;0.47;;;0.30;;
69059;SDS011;56135;37.534;-122.308;2023-02-15T05:01:39;0.88;;;0.47;;
69059;SDS011;56135;37.534;-122.308;2023-02-15T05:04:05;1.55;;;0.45;;
69059;SDS011;56135;37.534;-122.308;2023-02-15T05:06:31;1.75;;;0.30;;
69059;SDS011;56135;37.534;-122.308;2023-02-15T05:08:57;1.35;;;0.55;;
69059;SDS011;56135;37.534;-122.308;2023-02-15T05:11:24;0.32;;;0.28;;
69059;SDS011;56135;37.534;-122.308;2023-02-15T05:13:51;0.90;;;0.45;;
69059;SDS011;56135;37.534;-122.308;2023-02-15T05:16:17;0.35;;;0.30;;
69059;SDS011;56135;37.534;-122.308;2023-02-15T05:18:43;0.43;;;0.20;;
69059;SDS011;56135;37.534;-122.308;2023-02-15T05:21:10;0.52;;;0.17;;
69059;SDS011;56135;37.534;-122.308;2023-02-15T05:23:36;0.22;;;0.17;;
69059;SDS011;56135;37.534;-122.308;2023-02-15T05:26:02;0.52;;;0.30;;
69059;SDS011;56135;37.534;-122.308;2023-02-15T05:28:47;0.63;;;0.25;;
69059;SDS011;56135;37.534;-122.308;2023-02-15T05:31:14;0.52;;;0.40;;
69059;SDS011;56135;37.534;-122.308;2023-02-15T05:33:43;1.85;;;0.32;;
69059;SDS011;56135;37.534;-122.308;2023-02-15T05:36:10;1.30;;;0.30;;
69059;SDS011;56135;37.534;-122.308;2023-02-15T05:38:36;0.57;;;0.20;;
69059;SDS011;56135;37.534;-122.308;2023-02-15T05:43:30;0.20;;;0.13;;
69059;SDS011;56135;37.534;-122.308;2023-02-15T05:45:57;0.45;;;0.15;;
69059;SDS011;56135;37.534;-122.308;2023-02-15T05:48:24;0.00;;;0.00;;
69059;SDS011;56135;37.534;-122.308;2023-02-15T05:50:58;0.30;;;0.30;;
69059;SDS011;56135;37.534;-122.308;2023-02-15T05:53:26;0.25;;;0.25;;
69059;SDS011;56135;37.534;-122.308;2023-02-15T05:55:53;0.38;;;0.30;;
69059;SDS011;56135;37.534;-122.308;2023-02-15T05:58:27;1.08;;;0.57;;
69059;SDS011;56135;37.534;-122.308;2023-02-15T06:00:55;0.30;;;0.13;;
69059;SDS011;56135;37.534;-122.308;2023-02-15T06:03:22;3.22;;;0.20;;
69059;SDS011;56135;37.534;-122.308;2023-02-15T06:05:48;2.35;;;0.32;;
69059;SDS011;56135;37.534;-122.308;2023-02-15T06:08:15;0.70;;;0.25;;
69059;SDS011;56135;37.534;-122.308;2023-02-15T06:10:41;0.08;;;0.08;;
69059;SDS011;56135;37.534;-122.308;2023-02-15T06:15:34;0.85;;;0.20;;
69059;SDS011;56135;37.534;-122.308;2023-02-15T06:18:00;0.60;;;0.10;;
69059;SDS011;56135;37.534;-122.308;2023-02-15T06:20:27;0.00;;;0.00;;
69059;SDS011;56135;37.534;-122.308;2023-02-15T06:22:53;0.30;;;0.20;;
69059;SDS011;56135;37.534;-122.308;2023-02-15T06:25:19;3.10;;;0.30;;
69059;SDS011;56135;37.534;-122.308;2023-02-15T06:27:45;0.28;;;0.13;;
69059;SDS011;56135;37.534;-122.308;2023-02-15T06:30:12;0.20;;;0.20;;
69059;SDS011;56135;37.534;-122.308;2023-02-15T06:32:39;1.15;;;0.43;;
69059;SDS011;56135;37.534;-122.308;2023-02-15T06:37:31;0.10;;;0.10;;
69059;SDS011;56135;37.534;-122.308;2023-02-15T06:39:58;0.15;;;0.15;;
69059;SDS011;56135;37.534;-122.308;2023-02-15T06:42:24;0.00;;;0.00;;
69059;SDS011;56135;37.534;-122.308;2023-02-15T06:44:50;1.15;;;0.20;;
69059;SDS011;56135;37.534;-122.308;2023-02-15T06:47:16;1.75;;;0.10;;
69059;SDS011;56135;37.534;-122.308;2023-02-15T06:49:43;0.00;;;0.00;;
69059;SDS011;56135;37.534;-122.308;2023-02-15T06:52:09;0.75;;;0.28;;
69059;SDS011;56135;37.534;-122.308;2023-02-15T06:54:35;0.32;;;0.25;;
69059;SDS011;56135;37.534;-122.308;2023-02-15T06:57:01;0.95;;;0.60;;
69059;SDS011;56135;37.534;-122.308;2023-02-15T06:59:28;2.90;;;0.20;;
69059;SDS011;56135;37.534;-122.308;2023-02-15T07:01:54;0.38;;;0.10;;
69059;SDS011;56135;37.534;-122.308;2023-02-15T07:04:20;0.00;;;0.00;;
69059;SDS011;56135;37.534;-122.308;2023-02-15T07:06:46;0.20;;;0.20;;
69059;SDS011;56135;37.534;-122.308;2023-02-15T07:09:12;0.00;;;0.00;;
69059;SDS011;56135;37.534;-122.308;2023-02-15T07:11:39;1.95;;;1.25;;
69059;SDS011;56135;37.534;-122.308;2023-02-15T07:14:23;1.42;;;0.22;;
69059;SDS011;56135;37.534;-122.308;2023-02-15T07:16:49;1.33;;;0.95;;
69059;SDS011;56135;37.534;-122.308;2023-02-15T07:19:15;0.35;;;0.13;;
69059;SDS011;56135;37.534;-122.308;2023-02-15T07:21:42;0.50;;;0.20;;
69059;SDS011;56135;37.534;-122.308;2023-02-15T07:24:10;0.08;;;0.08;;
69059;SDS011;56135;37.534;-122.308;2023-02-15T07:26:36;0.65;;;0.30;;
69059;SDS011;56135;37.534;-122.308;2023-02-15T07:29:03;0.65;;;0.28;;
69059;SDS011;56135;37.534;-122.308;2023-02-15T07:31:29;0.00;;;0.00;;
69059;SDS011;56135;37.534;-122.308;2023-02-15T07:33:55;0.10;;;0.10;;
69059;SDS011;56135;37.534;-122.308;2023-02-15T07:36:22;0.00;;;0.00;;
69059;SDS011;56135;37.534;-122.308;2023-02-15T07:38:48;0.30;;;0.30;;
69059;SDS011;56135;37.534;-122.308;2023-02-15T07:41:14;0.00;;;0.00;;
69059;SDS011;56135;37.534;-122.308;2023-02-15T07:43:42;0.22;;;0.08;;
69059;SDS011;56135;37.534;-122.308;2023-02-15T07:46:11;0.10;;;0.10;;
69059;SDS011;56135;37.534;-122.308;2023-02-15T07:48:41;0.10;;;0.10;;
69059;SDS011;56135;37.534;-122.308;2023-02-15T07:51:08;0.00;;;0.00;;
69059;SDS011;56135;37.534;-122.308;2023-02-15T07:53:36;0.63;;;0.17;;
69059;SDS011;56135;37.534;-122.308;2023-02-15T07:56:05;0.10;;;0.10;;
69059;SDS011;56135;37.534;-122.308;2023-02-15T07:58:34;0.17;;;0.15;;
69059;SDS011;56135;37.534;-122.308;2023-02-15T08:01:17;0.20;;;0.10;;
69059;SDS011;56135;37.534;-122.308;2023-02-15T08:03:57;0.17;;;0.13;;
69059;SDS011;56135;37.534;-122.308;2023-02-15T08:06:24;0.38;;;0.10;;
69059;SDS011;56135;37.534;-122.308;2023-02-15T08:08:52;12.07;;;0.90;;
69059;SDS011;56135;37.534;-122.308;2023-02-15T08:16:35;0.35;;;0.10;;
69059;SDS011;56135;37.534;-122.308;2023-02-15T08:19:28;3.65;;;0.10;;
69059;SDS011;56135;37.534;-122.308;2023-02-15T08:21:59;0.00;;;0.00;;
69059;SDS011;56135;37.534;-122.308;2023-02-15T08:24:29;0.10;;;0.10;;
69059;SDS011;56135;37.534;-122.308;2023-02-15T08:26:56;0.10;;;0.10;;
69059;SDS011;56135;37.534;-122.308;2023-02-15T08:29:25;0.40;;;0.20;;
69059;SDS011;56135;37.534;-122.308;2023-02-15T08:31:53;0.17;;;0.17;;
69059;SDS011;56135;37.534;-122.308;2023-02-15T08:34:30;0.00;;;0.00;;
69059;SDS011;56135;37.534;-122.308;2023-02-15T08:36:58;0.00;;;0.00;;
69059;SDS011;56135;37.534;-122.308;2023-02-15T08:39:24;0.25;;;0.10;;
69059;SDS011;56135;37.534;-122.308;2023-02-15T08:41:51;0.00;;;0.00;;
69059;SDS011;56135;37.534;-122.308;2023-02-15T08:44:17;0.00;;;0.00;;
69059;SDS011;56135;37.534;-122.308;2023-02-15T08:46:45;0.00;;;0.00;;
69059;SDS011;56135;37.534;-122.308;2023-02-15T08:49:17;5.10;;;0.30;;
69059;SDS011;56135;37.534;-122.308;2023-02-15T08:51:45;0.17;;;0.10;;
69059;SDS011;56135;37.534;-122.308;2023-02-15T08:54:12;0.00;;;0.00;;
69059;SDS011;56135;37.534;-122.308;2023-02-15T08:56:41;2.50;;;1.00;;
69059;SDS011;56135;37.534;-122.308;2023-02-15T08:59:26;0.25;;;0.15;;
69059;SDS011;56135;37.534;-122.308;2023-02-15T09:01:52;0.10;;;0.10;;
69059;SDS011;56135;37.534;-122.308;2023-02-15T09:04:19;0.80;;;0.20;;
69059;SDS011;56135;37.534;-122.308;2023-02-15T09:06:47;0.00;;;0.00;;
69059;SDS011;56135;37.534;-122.308;2023-02-15T09:09:14;0.00;;;0.00;;
69059;SDS011;56135;37.534;-122.308;2023-02-15T09:11:43;0.20;;;0.20;;
69059;SDS011;56135;37.534;-122.308;2023-02-15T09:14:11;0.40;;;0.10;;
69059;SDS011;56135;37.534;-122.308;2023-02-15T09:16:43;2.30;;;0.20;;
69059;SDS011;56135;37.534;-122.308;2023-02-15T09:19:13;0.20;;;0.10;;
69059;SDS011;56135;37.534;-122.308;2023-02-15T09:21:41;0.30;;;0.10;;
69059;SDS011;56135;37.534;-122.308;2023-02-15T09:24:08;0.35;;;0.10;;
69059;SDS011;56135;37.534;-122.308;2023-02-15T09:26:37;0.00;;;0.00;;
69059;SDS011;56135;37.534;-122.308;2023-02-15T09:29:08;0.13;;;0.08;;
69059;SDS011;56135;37.534;-122.308;2023-02-15T09:31:39;1.40;;;0.75;;
69059;SDS011;56135;37.534;-122.308;2023-02-15T09:34:09;1.98;;;0.25;;
69059;SDS011;56135;37.534;-122.308;2023-02-15T09:36:37;0.10;;;0.10;;
69059;SDS011;56135;37.534;-122.308;2023-02-15T09:44:41;0.00;;;0.00;;
69059;SDS011;56135;37.534;-122.308;2023-02-15T09:47:29;0.47;;;0.10;;
69059;SDS011;56135;37.534;-122.308;2023-02-15T09:53:35;0.45;;;0.20;;
69059;SDS011;56135;37.534;-122.308;2023-02-15T10:00:16;0.10;;;0.10;;
69059;SDS011;56135;37.534;-122.308;2023-02-15T10:05:11;0.10;;;0.03;;
69059;SDS011;56135;37.534;-122.308;2023-02-15T10:07:58;0.08;;;0.08;;
69059;SDS011;56135;37.534;-122.308;2023-02-15T10:10:54;0.00;;;0.00;;
69059;SDS011;56135;37.534;-122.308;2023-02-15T10:13:31;0.10;;;0.10;;
69059;SDS011;56135;37.534;-122.308;2023-02-15T10:16:19;3.70;;;0.20;;
69059;SDS011;56135;37.534;-122.308;2023-02-15T10:22:11;0.10;;;0.08;;
69059;SDS011;56135;37.534;-122.308;2023-02-15T10:27:39;0.32;;;0.15;;
69059;SDS011;56135;37.534;-122.308;2023-02-15T10:30:23;0.82;;;0.40;;
69059;SDS011;56135;37.534;-122.308;2023-02-15T10:33:00;0.52;;;0.22;;
69059;SDS011;56135;37.534;-122.308;2023-02-15T10:44:24;0.08;;;0.08;;
69059;SDS011;56135;37.534;-122.308;2023-02-15T10:50:13;0.38;;;0.10;;
69059;SDS011;56135;37.534;-122.308;2023-02-15T10:53:32;0.10;;;0.10;;
69059;SDS011;56135;37.534;-122.308;2023-02-15T10:56:06;0.30;;;0.20;;
69059;SDS011;56135;37.534;-122.308;2023-02-15T11:07:02;0.20;;;0.20;;
69059;SDS011;56135;37.534;-122.308;2023-02-15T11:09:51;0.10;;;0.10;;
69059;SDS011;56135;37.534;-122.308;2023-02-15T11:12:45;0.43;;;0.30;;
69059;SDS011;56135;37.534;-122.308;2023-02-15T11:15:19;0.00;;;0.00;;
69059;SDS011;56135;37.534;-122.308;2023-02-15T11:18:00;0.60;;;0.13;;
69059;SDS011;56135;37.534;-122.308;2023-02-15T11:20:41;1.98;;;0.15;;
69059;SDS011;56135;37.534;-122.308;2023-02-15T11:23:15;0.00;;;0.00;;
69059;SDS011;56135;37.534;-122.308;2023-02-15T11:25:47;0.47;;;0.10;;
69059;SDS011;56135;37.534;-122.308;2023-02-15T11:28:30;0.20;;;0.10;;
69059;SDS011;56135;37.534;-122.308;2023-02-15T11:30:57;0.10;;;0.08;;
69059;SDS011;56135;37.534;-122.308;2023-02-15T11:33:28;0.57;;;0.20;;
69059;SDS011;56135;37.534;-122.308;2023-02-15T11:36:00;1.85;;;0.20;;
69059;SDS011;56135;37.534;-122.308;2023-02-15T11:38:33;0.00;;;0.00;;
69059;SDS011;56135;37.534;-122.308;2023-02-15T11:41:04;0.00;;;0.00;;
69059;SDS011;56135;37.534;-122.308;2023-02-15T11:43:39;0.70;;;0.10;;
69059;SDS011;56135;37.534;-122.308;2023-02-15T11:46:13;1.02;;;0.15;;
69059;SDS011;56135;37.534;-122.308;2023-02-15T11:48:40;0.15;;;0.10;;
69059;SDS011;56135;37.534;-122.308;2023-02-15T11:51:14;0.30;;;0.30;;
69059;SDS011;56135;37.534;-122.308;2023-02-15T11:53:44;0.32;;;0.20;;
69059;SDS011;56135;37.534;-122.308;2023-02-15T11:56:15;0.00;;;0.00;;
69059;SDS011;56135;37.534;-122.308;2023-02-15T11:58:58;0.10;;;0.10;;
69059;SDS011;56135;37.534;-122.308;2023-02-15T12:01:35;0.10;;;0.10;;
69059;SDS011;56135;37.534;-122.308;2023-02-15T12:04:20;0.00;;;0.00;;
69059;SDS011;56135;37.534;-122.308;2023-02-15T12:06:53;0.00;;;0.00;;
69059;SDS011;56135;37.534;-122.308;2023-02-15T12:09:29;0.03;;;0.03;;
69059;SDS011;56135;37.534;-122.308;2023-02-15T12:14:49;0.00;;;0.00;;
69059;SDS011;56135;37.534;-122.308;2023-02-15T12:17:17;0.00;;;0.00;;
69059;SDS011;56135;37.534;-122.308;2023-02-15T12:19:46;0.00;;;0.00;;
69059;SDS011;56135;37.534;-122.308;2023-02-15T12:24:49;0.00;;;0.00;;
69059;SDS011;56135;37.534;-122.308;2023-02-15T12:27:19;0.00;;;0.00;;
69059;SDS011;56135;37.534;-122.308;2023-02-15T12:29:57;0.30;;;0.20;;
69059;SDS011;56135;37.534;-122.308;2023-02-15T12:32:34;0.10;;;0.10;;
69059;SDS011;56135;37.534;-122.308;2023-02-15T12:35:21;0.57;;;0.22;;
69059;SDS011;56135;37.534;-122.308;2023-02-15T12:37:55;0.00;;;0.00;;
69059;SDS011;56135;37.534;-122.308;2023-02-15T12:40:26;1.13;;;0.30;;
69059;SDS011;56135;37.534;-122.308;2023-02-15T12:42:54;1.25;;;1.15;;
69059;SDS011;56135;37.534;-122.308;2023-02-15T12:45:22;0.00;;;0.00;;
69059;SDS011;56135;37.534;-122.308;2023-02-15T12:50:46;0.20;;;0.10;;
69059;SDS011;56135;37.534;-122.308;2023-02-15T12:53:17;0.80;;;0.43;;
69059;SDS011;56135;37.534;-122.308;2023-02-15T12:56:03;0.00;;;0.00;;
69059;SDS011;56135;37.534;-122.308;2023-02-15T12:58:34;0.00;;;0.00;;
69059;SDS011;56135;37.534;-122.308;2023-02-15T13:01:18;0.00;;;0.00;;
69059;SDS011;56135;37.534;-122.308;2023-02-15T13:04:05;0.08;;;0.08;;
69059;SDS011;56135;37.534;-122.308;2023-02-15T13:06:45;0.68;;;0.20;;
69059;SDS011;56135;37.534;-122.308;2023-02-15T13:12:16;0.47;;;0.45;;
69059;SDS011;56135;37.534;-122.308;2023-02-15T13:14:49;0.10;;;0.10;;
69059;SDS011;56135;37.534;-122.308;2023-02-15T13:17:18;0.00;;;0.00;;
69059;SDS011;56135;37.534;-122.308;2023-02-15T13:20:16;0.05;;;0.05;;
69059;SDS011;56135;37.534;-122.308;2023-02-15T13:22:45;0.43;;;0.20;;
69059;SDS011;56135;37.534;-122.308;2023-02-15T13:25:22;0.00;;;0.00;;
69059;SDS011;56135;37.534;-122.308;2023-02-15T13:27:53;0.08;;;0.00;;
69059;SDS011;56135;37.534;-122.308;2023-02-15T13:33:11;0.80;;;0.32;;
69059;SDS011;56135;37.534;-122.308;2023-02-15T13:35:56;0.70;;;0.43;;
69059;SDS011;56135;37.534;-122.308;2023-02-15T13:38:45;0.32;;;0.22;;
69059;SDS011;56135;37.534;-122.308;2023-02-15T13:41:23;0.10;;;0.00;;
69059;SDS011;56135;37.534;-122.308;2023-02-15T13:44:15;0.00;;;0.00;;
69059;SDS011;56135;37.534;-122.308;2023-02-15T13:52:18;0.10;;;0.10;;
69059;SDS011;56135;37.534;-122.308;2023-02-15T13:54:58;0.00;;;0.00;;
69059;SDS011;56135;37.534;-122.308;2023-02-15T14:03:10;0.00;;;0.00;;
69059;SDS011;56135;37.534;-122.308;2023-02-15T14:08:41;0.38;;;0.13;;
69059;SDS011;56135;37.534;-122.308;2023-02-15T14:11:33;0.43;;;0.10;;
69059;SDS011;56135;37.534;-122.308;2023-02-15T14:22:36;0.10;;;0.10;;
69059;SDS011;56135;37.534;-122.308;2023-02-15T14:30:44;0.00;;;0.00;;
69059;SDS011;56135;37.534;-122.308;2023-02-15T14:35:40;0.73;;;0.20;;
69059;SDS011;56135;37.534;-122.308;2023-02-15T14:40:57;0.05;;;0.05;;
69059;SDS011;56135;37.534;-122.308;2023-02-15T14:46:10;0.38;;;0.20;;
69059;SDS011;56135;37.534;-122.308;2023-02-15T14:48:46;0.00;;;0.00;;
69059;SDS011;56135;37.534;-122.308;2023-02-15T14:54:53;0.00;;;0.00;;
69059;SDS011;56135;37.534;-122.308;2023-02-15T14:59:36;0.00;;;0.00;;
69059;SDS011;56135;37.534;-122.308;2023-02-15T15:07:50;0.00;;;0.00;;
69059;SDS011;56135;37.534;-122.308;2023-02-15T15:12:55;0.00;;;0.00;;
69059;SDS011;56135;37.534;-122.308;2023-02-15T15:17:58;0.00;;;0.00;;
69059;SDS011;56135;37.534;-122.308;2023-02-15T15:25:41;0.00;;;0.00;;
69059;SDS011;56135;37.534;-122.308;2023-02-15T15:36:45;0.00;;;0.00;;
69059;SDS011;56135;37.534;-122.308;2023-02-15T15:39:21;0.00;;;0.00;;
69059;SDS011;56135;37.534;-122.308;2023-02-15T15:45:22;0.43;;;0.10;;
69059;SDS011;56135;37.534;-122.308;2023-02-15T15:51:32;0.20;;;0.20;;
69059;SDS011;56135;37.534;-122.308;2023-02-15T15:53:56;0.00;;;0.00;;
69059;SDS011;56135;37.534;-122.308;2023-02-15T15:56:24;0.00;;;0.00;;
69059;SDS011;56135;37.534;-122.308;2023-02-15T15:59:05;0.00;;;0.00;;
69059;SDS011;56135;37.534;-122.308;2023-02-15T16:01:39;0.00;;;0.00;;
69059;SDS011;56135;37.534;-122.308;2023-02-15T16:04:12;0.17;;;0.10;;
69059;SDS011;56135;37.534;-122.308;2023-02-15T16:06:40;0.05;;;0.05;;
69059;SDS011;56135;37.534;-122.308;2023-02-15T16:11:41;0.00;;;0.00;;
69059;SDS011;56135;37.534;-122.308;2023-02-15T16:14:11;0.00;;;0.00;;
69059;SDS011;56135;37.534;-122.308;2023-02-15T16:16:52;0.00;;;0.00;;
69059;SDS011;56135;37.534;-122.308;2023-02-15T16:19:23;0.43;;;0.13;;
69059;SDS011;56135;37.534;-122.308;2023-02-15T16:21:52;0.00;;;0.00;;
69059;SDS011;56135;37.534;-122.308;2023-02-15T16:24:32;0.28;;;0.15;;
69059;SDS011;56135;37.534;-122.308;2023-02-15T16:27:14;0.05;;;0.05;;
69059;SDS011;56135;37.534;-122.308;2023-02-15T16:29:42;0.20;;;0.10;;
69059;SDS011;56135;37.534;-122.308;2023-02-15T16:32:17;0.05;;;0.05;;
69059;SDS011;56135;37.534;-122.308;2023-02-15T16:34:57;0.30;;;0.28;;
69059;SDS011;56135;37.534;-122.308;2023-02-15T16:37:26;0.00;;;0.00;;
69059;SDS011;56135;37.534;-122.308;2023-02-15T16:39:57;0.38;;;0.17;;
69059;SDS011;56135;37.534;-122.308;2023-02-15T16:42:23;0.10;;;0.10;;
69059;SDS011;56135;37.534;-122.308;2023-02-15T16:45:08;0.88;;;0.80;;
69059;SDS011;56135;37.534;-122.308;2023-02-15T16:47:41;1.17;;;0.43;;
69059;SDS011;56135;37.534;-122.308;2023-02-15T16:50:31;0.00;;;0.00;;
69059;SDS011;56135;37.534;-122.308;2023-02-15T16:53:00;0.20;;;0.10;;
69059;SDS011;56135;37.534;-122.308;2023-02-15T16:55:39;0.38;;;0.20;;
69059;SDS011;56135;37.534;-122.308;2023-02-15T16:58:07;0.90;;;0.15;;
69059;SDS011;56135;37.534;-122.308;2023-02-15T17:00:41;0.00;;;0.00;;
69059;SDS011;56135;37.534;-122.308;2023-02-15T17:05:56;0.20;;;0.20;;
69059;SDS011;56135;37.534;-122.308;2023-02-15T17:08:31;0.10;;;0.10;;
69059;SDS011;56135;37.534;-122.308;2023-02-15T17:13:24;0.00;;;0.00;;
69059;SDS011;56135;37.534;-122.308;2023-02-15T17:20:57;0.20;;;0.10;;
69059;SDS011;56135;37.534;-122.308;2023-02-15T17:23:48;0.17;;;0.08;;
69059;SDS011;56135;37.534;-122.308;2023-02-15T17:26:20;0.00;;;0.00;;
69059;SDS011;56135;37.534;-122.308;2023-02-15T17:28:52;0.10;;;0.10;;
69059;SDS011;56135;37.534;-122.308;2023-02-15T17:31:21;0.00;;;0.00;;
69059;SDS011;56135;37.534;-122.308;2023-02-15T17:33:53;0.00;;;0.00;;
69059;SDS011;56135;37.534;-122.308;2023-02-15T17:36:24;0.25;;;0.20;;
69059;SDS011;56135;37.534;-122.308;2023-02-15T17:41:24;0.10;;;0.10;;
69059;SDS011;56135;37.534;-122.308;2023-02-15T17:43:51;0.00;;;0.00;;
69059;SDS011;56135;37.534;-122.308;2023-02-15T17:46:17;0.00;;;0.00;;
69059;SDS011;56135;37.534;-122.308;2023-02-15T17:48:47;0.50;;;0.20;;
69059;SDS011;56135;37.534;-122.308;2023-02-15T17:51:15;0.20;;;0.10;;
69059;SDS011;56135;37.534;-122.308;2023-02-15T17:53:43;0.00;;;0.00;;
69059;SDS011;56135;37.534;-122.308;2023-02-15T17:56:28;0.70;;;0.70;;
69059;SDS011;56135;37.534;-122.308;2023-02-15T17:58:54;0.35;;;0.20;;
69059;SDS011;56135;37.534;-122.308;2023-02-15T18:01:20;0.00;;;0.00;;